Red Rock, Oklahoma
Current Conditions -  °F | °C
As of 10:53 PM on Friday 24 Oct 2014 (Local Time) from KPNC Reporting Station
Clear Clear  
Wind Chill: 22°   Ceiling: Unl
Heat Index: 22°   Visibility: 10mi
Dew Point: 17°   Wind: 6mph
Humidity: 71%   Direction: 180°S
Pressure: 30.03"   Gusts: NA
Location:  36.46°N, 97.18°W
Report Text: KPNC 250353Z AUTO 18005KT 10SM CLR 22/17 A3003 RMK AO2 SLP160 T02220167
Loading
Personal Weather Stations






























Interactive Weather Map
Tropical Storm Tracking
New forecast layout! Learn more

10-Day Weather Forecast

Advertisements
Track Severe Weather on mobile